createdAt,value
2023-05-08T00:01:42.058Z,13
2023-05-08T00:06:42.071Z,12
2023-05-08T00:11:42.073Z,8
2023-05-08T00:16:42.064Z,12
2023-05-08T00:21:42.077Z,12
2023-05-08T00:26:42.067Z,11
2023-05-08T00:31:42.080Z,12
2023-05-08T00:36:42.082Z,12
2023-05-08T00:41:42.083Z,13
2023-05-08T00:46:42.149Z,10
2023-05-08T00:51:42.076Z,10
2023-05-08T00:56:42.132Z,12
2023-05-08T01:01:42.080Z,13
2023-05-08T01:06:42.092Z,12
2023-05-08T01:11:42.094Z,12
2023-05-08T01:16:42.096Z,12
2023-05-08T01:21:42.098Z,14
2023-05-08T01:26:42.088Z,16
2023-05-08T01:31:42.101Z,17
2023-05-08T01:36:42.092Z,19
2023-05-08T01:41:42.105Z,14
2023-05-08T01:46:42.106Z,14
2023-05-08T01:51:42.097Z,17
2023-05-08T01:56:42.111Z,17
2023-05-08T02:01:42.101Z,13
2023-05-08T02:06:42.113Z,14
2023-05-08T02:11:42.115Z,16
2023-05-08T02:16:42.117Z,15
2023-05-08T02:21:42.119Z,14
2023-05-08T02:26:42.110Z,12
2023-05-08T02:31:42.122Z,10
2023-05-08T02:36:42.113Z,12
2023-05-08T02:41:42.126Z,11
2023-05-08T02:46:42.127Z,14
2023-05-08T02:51:42.118Z,11
2023-05-08T02:56:42.132Z,12
2023-05-08T03:01:42.122Z,15
2023-05-08T03:06:42.134Z,11
2023-05-08T03:11:42.125Z,13
2023-05-08T03:16:42.138Z,16
2023-05-08T03:21:42.140Z,14
2023-05-08T03:26:42.131Z,14
2023-05-08T03:31:42.169Z,15
2023-05-08T03:36:42.134Z,16
2023-05-08T03:41:42.147Z,14
2023-05-08T03:46:42.148Z,11
2023-05-08T03:51:42.150Z,15
2023-05-08T03:56:42.153Z,16
2023-05-08T04:01:42.143Z,15
2023-05-08T04:06:42.155Z,16
2023-05-08T04:11:42.146Z,23
2023-05-08T04:16:42.159Z,16
2023-05-08T04:21:42.161Z,20
2023-05-08T04:26:42.151Z,17
2023-05-08T04:31:42.165Z,15
2023-05-08T04:36:42.155Z,21
2023-05-08T04:41:42.167Z,16
2023-05-08T04:46:42.169Z,19
2023-05-08T04:51:42.171Z,16
2023-05-08T04:56:42.173Z,14
2023-05-08T05:01:42.163Z,13
2023-05-08T05:06:42.176Z,14
2023-05-08T05:11:42.166Z,16
2023-05-08T05:16:42.179Z,20
2023-05-08T05:21:42.181Z,19
2023-05-08T05:26:42.171Z,19
2023-05-08T05:31:42.184Z,18
2023-05-08T05:36:42.175Z,20
2023-05-08T05:41:42.187Z,24
2023-05-08T05:46:42.189Z,21
2023-05-08T05:51:42.191Z,20
2023-05-08T05:56:42.241Z,16
2023-05-08T06:01:42.183Z,21
2023-05-08T06:06:42.196Z,18
2023-05-08T06:11:42.186Z,20
2023-05-08T06:16:42.199Z,24
2023-05-08T06:21:42.200Z,21
2023-05-08T06:26:42.227Z,24
2023-05-08T06:31:42.205Z,26
2023-05-08T06:36:42.195Z,17
2023-05-08T06:41:42.207Z,21
2023-05-08T06:46:42.198Z,22
2023-05-08T06:51:42.211Z,20
2023-05-08T06:56:42.213Z,25
2023-05-08T07:01:42.203Z,18
2023-05-08T07:06:42.217Z,21
2023-05-08T07:11:42.207Z,20
2023-05-08T07:16:42.220Z,23
2023-05-08T07:21:42.221Z,24
2023-05-08T07:26:42.223Z,23
2023-05-08T07:31:42.226Z,21
2023-05-08T07:36:42.216Z,20
2023-05-08T07:41:42.229Z,23
2023-05-08T07:46:42.219Z,24
2023-05-08T07:51:42.232Z,23
2023-05-08T07:56:42.234Z,26
2023-05-08T08:01:42.225Z,24
2023-05-08T08:06:42.238Z,21
2023-05-08T08:16:42.242Z,18
2023-05-08T08:21:42.243Z,23
2023-05-08T08:26:42.245Z,31
2023-05-08T08:31:42.248Z,19
2023-05-08T08:36:42.238Z,27
2023-05-08T08:41:42.251Z,23
2023-05-08T08:46:42.242Z,25
2023-05-08T08:51:42.255Z,31
2023-05-08T08:56:42.257Z,26
2023-05-08T09:01:42.248Z,32
2023-05-08T09:06:42.261Z,24
2023-05-08T09:11:42.251Z,27
2023-05-08T09:16:42.264Z,21
2023-05-08T09:21:42.255Z,25
2023-05-08T09:26:42.268Z,28
2023-05-08T09:31:42.311Z,28
2023-05-08T09:36:42.261Z,36
2023-05-08T09:41:42.274Z,29
2023-05-08T09:46:42.265Z,26
2023-05-08T09:51:42.277Z,29
2023-05-08T09:56:42.279Z,20
2023-05-08T10:01:42.281Z,23
2023-05-08T10:06:42.284Z,23
2023-05-08T10:11:42.274Z,25
2023-05-08T10:16:42.287Z,18
2023-05-08T10:21:42.278Z,24
2023-05-08T10:26:42.291Z,27
2023-05-08T10:31:42.293Z,25
2023-05-08T10:36:42.285Z,28
2023-05-08T10:41:42.298Z,28
2023-05-08T10:46:42.289Z,36
2023-05-08T10:51:42.302Z,24
2023-05-08T10:56:42.304Z,30
2023-05-08T11:01:42.306Z,25
2023-05-08T11:06:42.309Z,26
2023-05-08T11:11:42.299Z,34
2023-05-08T11:16:42.312Z,42
2023-05-08T11:21:42.303Z,39
2023-05-08T11:26:42.341Z,35
2023-05-08T11:31:43.178Z,39
2023-05-08T11:36:42.309Z,37
2023-05-08T11:41:42.323Z,26
2023-05-08T11:46:42.314Z,28
2023-05-08T11:51:42.327Z,21
2023-05-08T11:56:42.329Z,29
2023-05-08T12:01:42.331Z,34
2023-05-08T12:06:42.397Z,27
2023-05-08T12:11:42.324Z,21
2023-05-08T12:16:42.382Z,22
2023-05-08T12:21:42.328Z,24
2023-05-08T12:26:42.341Z,29
2023-05-08T12:31:49.223Z,19
2023-05-08T12:36:42.370Z,26
2023-05-08T12:41:42.348Z,33
2023-05-08T12:46:42.338Z,25
2023-05-08T12:51:42.351Z,29
2023-05-08T12:56:42.342Z,24
2023-05-08T13:01:42.355Z,22
2023-05-08T13:06:42.357Z,21
2023-05-08T13:11:42.348Z,26
2023-05-08T13:16:42.362Z,21
2023-05-08T13:21:42.352Z,26
2023-05-08T13:26:42.365Z,32
2023-05-08T13:31:55.201Z,27
2023-05-08T13:36:42.370Z,32
2023-05-08T13:41:42.372Z,20
2023-05-08T13:46:42.363Z,30
2023-05-08T13:51:42.376Z,28
2023-05-08T13:56:42.367Z,30
2023-05-08T14:01:42.381Z,31
2023-05-08T14:06:42.383Z,32
2023-05-08T14:11:42.374Z,25
2023-05-08T14:16:42.388Z,30
2023-05-08T14:21:42.379Z,23
2023-05-08T14:26:42.392Z,32
2023-05-08T14:32:01.180Z,24
2023-05-08T14:36:42.397Z,28
2023-05-08T14:41:42.400Z,23
2023-05-08T14:46:42.391Z,26
2023-05-08T14:51:42.404Z,28
2023-05-08T14:56:42.396Z,20
2023-05-08T15:01:42.409Z,25
2023-05-08T15:06:42.411Z,23
2023-05-08T15:11:42.403Z,31
2023-05-08T15:16:42.417Z,27
2023-05-08T15:21:42.408Z,33
2023-05-08T15:26:42.421Z,31
2023-05-08T15:31:50.704Z,24
2023-05-08T15:36:42.426Z,25
2023-05-08T15:41:56.943Z,32
2023-05-08T15:46:42.420Z,26
2023-05-08T15:51:42.433Z,34
2023-05-08T15:56:42.424Z,36
2023-05-08T16:01:42.438Z,27
2023-05-08T16:06:42.440Z,24
2023-05-08T16:11:42.431Z,30
2023-05-08T16:16:42.445Z,17
2023-05-08T16:21:42.436Z,23
2023-05-08T16:26:42.449Z,18
2023-05-08T16:31:42.441Z,28
2023-05-08T16:36:42.454Z,26
2023-05-08T16:41:42.456Z,25
2023-05-08T16:46:42.448Z,21
2023-05-08T16:51:42.462Z,21
2023-05-08T16:56:42.452Z,27
2023-05-08T17:01:42.465Z,23
2023-05-08T17:06:42.468Z,23
2023-05-08T17:11:42.470Z,25
2023-05-08T17:16:42.472Z,21
2023-05-08T17:21:42.463Z,26
2023-05-08T17:26:42.476Z,24
2023-05-08T17:31:42.467Z,19
2023-05-08T17:36:42.480Z,16
2023-05-08T17:41:42.482Z,19
2023-05-08T17:46:42.474Z,22
2023-05-08T17:51:42.487Z,15
2023-05-08T17:56:42.478Z,15
2023-05-08T18:01:42.491Z,20
2023-05-08T18:06:42.493Z,28
2023-05-08T18:11:42.495Z,20
2023-05-08T18:16:42.497Z,20
2023-05-08T18:21:42.488Z,17
2023-05-08T18:26:42.501Z,18
2023-05-08T18:31:42.492Z,16
2023-05-08T18:36:42.505Z,16
2023-05-08T18:41:42.507Z,14
2023-05-08T18:46:42.498Z,24
2023-05-08T18:51:42.511Z,19
2023-05-08T18:56:42.502Z,20
2023-05-08T19:01:42.515Z,17
2023-05-08T19:06:42.516Z,20
2023-05-08T19:11:42.519Z,19
2023-05-08T19:16:42.570Z,23
2023-05-08T19:21:42.512Z,18
2023-05-08T19:26:42.525Z,20
2023-05-08T19:31:42.516Z,19
2023-05-08T19:36:42.528Z,20
2023-05-08T19:41:42.530Z,20
2023-05-08T19:46:42.532Z,21
2023-05-08T19:51:42.535Z,19
2023-05-08T19:56:42.525Z,18
2023-05-08T20:01:42.538Z,17
2023-05-08T20:06:42.529Z,14
2023-05-08T20:11:42.542Z,17
2023-05-08T20:16:42.544Z,23
2023-05-08T20:21:42.535Z,15
2023-05-08T20:26:42.548Z,17
2023-05-08T20:31:42.539Z,15
2023-05-08T20:36:42.551Z,14
2023-05-08T20:41:42.553Z,17
2023-05-08T20:46:42.555Z,13
2023-05-08T20:51:42.558Z,18
2023-05-08T20:56:42.548Z,22
2023-05-08T21:01:42.561Z,17
2023-05-08T21:06:42.552Z,20
2023-05-08T21:11:42.565Z,15
2023-05-08T21:16:42.566Z,16
2023-05-08T21:21:42.557Z,13
2023-05-08T21:26:42.571Z,12
2023-05-08T21:31:42.561Z,11
2023-05-08T21:36:42.574Z,13
2023-05-08T21:41:42.565Z,14
2023-05-08T21:46:42.578Z,14
2023-05-08T21:51:42.579Z,12
2023-05-08T21:56:42.570Z,18
2023-05-08T22:01:42.584Z,19
2023-05-08T22:06:42.574Z,12
2023-05-08T22:11:42.587Z,12
2023-05-08T22:16:42.589Z,16
2023-05-08T22:21:42.590Z,13
2023-05-08T22:26:42.593Z,15
2023-05-08T22:31:42.583Z,13
2023-05-08T22:36:42.596Z,11
2023-05-08T22:41:42.587Z,10
2023-05-08T22:46:42.600Z,14
2023-05-08T22:51:42.601Z,12
2023-05-08T22:56:42.592Z,12
2023-05-08T23:01:42.606Z,15
2023-05-08T23:06:42.596Z,14
2023-05-08T23:11:42.609Z,16
2023-05-08T23:16:42.610Z,14
2023-05-08T23:21:42.612Z,13
2023-05-08T23:26:42.614Z,15
2023-05-08T23:31:42.605Z,13
2023-05-08T23:36:42.617Z,13
2023-05-08T23:41:42.608Z,11
2023-05-08T23:46:42.621Z,10
2023-05-08T23:51:42.622Z,10
2023-05-08T23:56:42.613Z,17
